createdAt,value
2023-01-01T00:00:03.288Z,100107.00
2023-01-01T00:02:36.970Z,100127.00
2023-01-01T00:05:08.047Z,100123.00
2023-01-01T00:07:35.778Z,100122.00
2023-01-01T00:10:20.886Z,100127.00
2023-01-01T00:12:48.549Z,100125.00
2023-01-01T00:15:16.388Z,100124.00
2023-01-01T00:17:44.031Z,100154.00
2023-01-01T00:20:13.458Z,100142.00
2023-01-01T00:22:54.398Z,100136.00
2023-01-01T00:25:23.175Z,100143.00
2023-01-01T00:27:51.159Z,100144.00
2023-01-01T00:30:18.939Z,100147.00
2023-01-01T00:32:54.780Z,100141.00
2023-01-01T00:35:26.075Z,100139.00
2023-01-01T00:37:54.321Z,100140.00
2023-01-01T00:40:22.093Z,100142.00
2023-01-01T00:42:49.784Z,100140.00
2023-01-01T00:45:21.928Z,100144.00
2023-01-01T00:47:50.176Z,100146.00
2023-01-01T00:50:18.160Z,100125.00
2023-01-01T00:52:48.908Z,100126.00
2023-01-01T00:55:16.848Z,100139.00
2023-01-01T00:57:44.589Z,100147.00
2023-01-01T01:00:13.870Z,100147.00
2023-01-01T01:02:41.823Z,100135.00
2023-01-01T01:05:10.715Z,100127.00
2023-01-01T01:07:39.989Z,100138.00
2023-01-01T01:10:12.047Z,100140.00
2023-01-01T01:12:39.846Z,100155.00
2023-01-01T01:15:09.011Z,100154.00
2023-01-01T01:17:36.832Z,100147.00
2023-01-01T01:20:05.075Z,100147.00
2023-01-01T01:22:34.512Z,100165.00
2023-01-01T01:25:02.195Z,100168.00
2023-01-01T01:27:31.465Z,100159.00
2023-01-01T01:29:59.230Z,100156.00
2023-01-01T01:32:26.930Z,100163.00
2023-01-01T01:34:54.614Z,100162.00
2023-01-01T01:37:22.373Z,100171.00
2023-01-01T01:39:53.727Z,100179.00
2023-01-01T01:42:22.048Z,100178.00
2023-01-01T01:44:54.340Z,100178.00
2023-01-01T01:47:27.886Z,100173.00
2023-01-01T01:50:00.035Z,100182.00
2023-01-01T01:52:29.684Z,100172.00
2023-01-01T01:54:58.676Z,100179.00
2023-01-01T01:57:26.567Z,100168.00
2023-01-01T01:59:57.347Z,100176.00
2023-01-01T02:02:32.828Z,100181.00
2023-01-01T02:05:00.881Z,100177.00
2023-01-01T02:07:30.571Z,100167.00
2023-01-01T02:09:58.960Z,100161.00
2023-01-01T02:12:27.642Z,100157.00
2023-01-01T02:14:56.936Z,100171.00
2023-01-01T02:17:34.045Z,100168.00
2023-01-01T02:20:20.026Z,100161.00
2023-01-01T02:23:24.484Z,100177.00
2023-01-01T02:26:06.279Z,100181.00
2023-01-01T02:28:56.461Z,100184.00
2023-01-01T02:31:28.833Z,100176.00
2023-01-01T02:34:01.506Z,100183.00
2023-01-01T02:36:32.721Z,100180.00
2023-01-01T02:39:04.157Z,100183.00
2023-01-01T02:41:35.019Z,100178.00
2023-01-01T02:46:33.191Z,100180.00
2023-01-01T02:49:06.162Z,100176.00
2023-01-01T02:51:48.336Z,100178.00
2023-01-01T02:54:27.592Z,100200.00
2023-01-01T02:57:05.339Z,100186.00
2023-01-01T03:00:07.028Z,100173.00
2023-01-01T03:02:48.575Z,100186.00
2023-01-01T03:05:22.295Z,100178.00
2023-01-01T03:08:00.711Z,100178.00
2023-01-01T03:10:35.907Z,100179.00
2023-01-01T03:13:07.252Z,100170.00
2023-01-01T03:15:41.782Z,100180.00
2023-01-01T03:18:15.069Z,100194.00
2023-01-01T03:20:46.694Z,100190.00
2023-01-01T03:23:19.925Z,100183.00
2023-01-01T03:25:50.809Z,100196.00
2023-01-01T03:28:23.578Z,100193.00
2023-01-01T03:30:54.411Z,100188.00
2023-01-01T03:33:27.394Z,100198.00
2023-01-01T03:35:59.579Z,100193.00
2023-01-01T03:38:31.700Z,100197.00
2023-01-01T03:41:03.639Z,100193.00
2023-01-01T03:43:40.689Z,100188.00
2023-01-01T03:46:11.827Z,100203.00
2023-01-01T03:49:00.248Z,100178.00
2023-01-01T03:51:44.863Z,100188.00
2023-01-01T03:54:20.777Z,100199.00
2023-01-01T03:56:53.707Z,100180.00
2023-01-01T03:59:26.121Z,100176.00
2023-01-01T04:01:59.357Z,100182.00
2023-01-01T04:04:27.770Z,100185.00
2023-01-01T04:06:56.638Z,100193.00
2023-01-01T04:09:33.667Z,100201.00
2023-01-01T04:12:05.076Z,100203.00
2023-01-01T04:14:34.279Z,100190.00
2023-01-01T04:17:05.403Z,100195.00
2023-01-01T04:19:33.743Z,100201.00
2023-01-01T04:22:01.852Z,100205.00
2023-01-01T04:24:29.939Z,100211.00
2023-01-01T04:26:57.875Z,100195.00
2023-01-01T04:29:25.604Z,100195.00
2023-01-01T04:31:53.383Z,100201.00
2023-01-01T04:34:22.373Z,100210.00
2023-01-01T04:36:50.038Z,100207.00
2023-01-01T04:39:17.720Z,100225.00
2023-01-01T04:41:45.354Z,100216.00
2023-01-01T04:44:12.997Z,100237.00
2023-01-01T04:46:42.487Z,100221.00
2023-01-01T04:49:10.168Z,100231.00
2023-01-01T04:51:39.167Z,100225.00
2023-01-01T04:54:07.171Z,100232.00
2023-01-01T04:56:34.883Z,100230.00
2023-01-01T04:59:02.604Z,100253.00
2023-01-01T05:01:31.119Z,100243.00
2023-01-01T05:04:00.404Z,100249.00
2023-01-01T05:06:28.766Z,100259.00
2023-01-01T05:08:59.476Z,100251.00
2023-01-01T05:11:28.611Z,100251.00
2023-01-01T05:13:59.507Z,100237.00
2023-01-01T05:16:30.211Z,100249.00
2023-01-01T05:18:58.315Z,100252.00
2023-01-01T05:21:28.287Z,100271.00
2023-01-01T05:23:59.714Z,100263.00
2023-01-01T05:26:29.522Z,100262.00
2023-01-01T05:28:57.918Z,100254.00
2023-01-01T05:31:28.008Z,100259.00
2023-01-01T05:33:57.285Z,100249.00
2023-01-01T05:36:27.029Z,100254.00
2023-01-01T05:38:55.020Z,100260.00
2023-01-01T05:41:24.406Z,100256.00
2023-01-01T05:43:53.429Z,100263.00
2023-01-01T05:46:23.344Z,100255.00
2023-01-01T05:48:51.431Z,100276.00
2023-01-01T05:51:22.006Z,100288.00
2023-01-01T05:53:49.714Z,100297.00
2023-01-01T05:56:18.218Z,100307.00
2023-01-01T05:58:47.991Z,100310.00
2023-01-01T06:01:18.225Z,100309.00
2023-01-01T06:03:49.242Z,100309.00
2023-01-01T06:06:19.049Z,100307.00
2023-01-01T06:08:50.681Z,100302.00
2023-01-01T06:11:18.652Z,100321.00
2023-01-01T06:13:48.001Z,100325.00
2023-01-01T06:16:16.211Z,100324.00
2023-01-01T06:18:43.879Z,100324.00
2023-01-01T06:21:14.416Z,100316.00
2023-01-01T06:23:42.828Z,100318.00
2023-01-01T06:26:13.374Z,100317.00
2023-01-01T06:28:42.009Z,100309.00
2023-01-01T06:31:13.051Z,100331.00
2023-01-01T06:33:41.184Z,100311.00
2023-01-01T06:36:12.016Z,100305.00
2023-01-01T06:38:41.728Z,100316.00
2023-01-01T06:41:13.422Z,100317.00
2023-01-01T06:43:41.326Z,100305.00
2023-01-01T06:46:15.813Z,100320.00
2023-01-01T06:48:43.891Z,100326.00
2023-01-01T06:51:13.829Z,100325.00
2023-01-01T06:53:41.802Z,100330.00
2023-01-01T06:56:09.861Z,100339.00
2023-01-01T06:58:37.720Z,100338.00
2023-01-01T07:01:08.883Z,100345.00
2023-01-01T07:03:38.883Z,100361.00
2023-01-01T07:06:07.183Z,100365.00
2023-01-01T07:08:34.952Z,100363.00
2023-01-01T07:11:03.288Z,100379.00
2023-01-01T07:13:31.580Z,100386.00
2023-01-01T07:15:59.448Z,100392.00
2023-01-01T07:18:28.080Z,100381.00
2023-01-01T07:20:59.200Z,100387.00
2023-01-01T07:23:28.265Z,100393.00
2023-01-01T07:25:56.186Z,100397.00
2023-01-01T07:28:25.290Z,100403.00
2023-01-01T07:30:53.764Z,100420.00
2023-01-01T07:33:23.667Z,100414.00
2023-01-01T07:35:51.566Z,100431.00
2023-01-01T07:38:20.653Z,100417.00
2023-01-01T07:40:48.353Z,100422.00
2023-01-01T07:43:16.062Z,100424.00
2023-01-01T07:45:43.726Z,100441.00
2023-01-01T07:48:15.764Z,100441.00
2023-01-01T07:50:44.632Z,100436.00
2023-01-01T07:53:12.344Z,100464.00
2023-01-01T07:55:41.376Z,100474.00
2023-01-01T07:58:09.476Z,100472.00
2023-01-01T08:00:37.349Z,100479.00
2023-01-01T08:03:05.629Z,100485.00
2023-01-01T08:05:33.980Z,100491.00
2023-01-01T08:08:01.793Z,100474.00
2023-01-01T08:10:29.640Z,100491.00
2023-01-01T08:13:02.011Z,100489.00
2023-01-01T08:15:29.983Z,100499.00
2023-01-01T08:17:58.658Z,100499.00
2023-01-01T08:20:26.353Z,100522.00
2023-01-01T08:22:53.998Z,100518.00
2023-01-01T08:25:21.954Z,100533.00
2023-01-01T08:27:49.676Z,100515.00
2023-01-01T08:30:18.830Z,100518.00
2023-01-01T08:32:46.472Z,100509.00
2023-01-01T08:35:14.131Z,100507.00
2023-01-01T08:37:41.779Z,100520.00
2023-01-01T08:40:11.852Z,100528.00
2023-01-01T08:42:39.496Z,100525.00
2023-01-01T08:45:08.483Z,100525.00
2023-01-01T08:47:37.493Z,100539.00
2023-01-01T08:50:06.049Z,100544.00
2023-01-01T08:52:33.660Z,100547.00
2023-01-01T08:55:01.967Z,100565.00
2023-01-01T08:57:31.482Z,100572.00
2023-01-01T08:59:59.394Z,100573.00
2023-01-01T09:02:27.337Z,100577.00
2023-01-01T09:04:56.479Z,100580.00
2023-01-01T09:07:24.116Z,100583.00
2023-01-01T09:09:51.881Z,100591.00
2023-01-01T09:12:19.509Z,100596.00
2023-01-01T09:14:48.269Z,100606.00
2023-01-01T09:17:16.100Z,100607.00
2023-01-01T09:19:43.891Z,100619.00
2023-01-01T09:22:13.744Z,100603.00
2023-01-01T09:24:41.401Z,100610.00
2023-01-01T09:27:09.170Z,100628.00
2023-01-01T09:29:36.823Z,100634.00
2023-01-01T09:32:04.858Z,100658.00
2023-01-01T09:34:32.573Z,100652.00
2023-01-01T09:37:00.239Z,100665.00
2023-01-01T09:39:30.245Z,100662.00
2023-01-01T09:42:18.009Z,100681.00
2023-01-01T09:45:03.449Z,100678.00
2023-01-01T09:47:34.892Z,100694.00
2023-01-01T09:50:05.944Z,100711.00
2023-01-01T09:52:51.888Z,100728.00
2023-01-01T09:55:26.711Z,100736.00
2023-01-01T09:57:56.307Z,100739.00
2023-01-01T10:00:24.422Z,100714.00
2023-01-01T10:03:07.933Z,100722.00
2023-01-01T10:05:48.173Z,100727.00
2023-01-01T10:08:23.955Z,100715.00
2023-01-01T10:11:04.371Z,100716.00
2023-01-01T10:13:38.061Z,100737.00
2023-01-01T10:16:13.425Z,100738.00
2023-01-01T10:18:43.511Z,100750.00
2023-01-01T10:21:16.463Z,100743.00
2023-01-01T10:23:48.336Z,100735.00
2023-01-01T10:26:19.602Z,100750.00
2023-01-01T10:28:55.578Z,100751.00
2023-01-01T10:31:31.658Z,100744.00
2023-01-01T10:33:59.510Z,100751.00
2023-01-01T10:36:27.893Z,100746.00
2023-01-01T10:38:55.550Z,100768.00
2023-01-01T10:41:25.285Z,100775.00
2023-01-01T10:43:53.072Z,100786.00
2023-01-01T10:46:31.619Z,100779.00
2023-01-01T10:49:10.781Z,100783.00
2023-01-01T10:51:39.630Z,100793.00
2023-01-01T10:54:13.707Z,100799.00
2023-01-01T10:56:43.363Z,100800.00
2023-01-01T10:59:35.319Z,100804.00
2023-01-01T11:02:19.091Z,100810.00
2023-01-01T11:04:46.973Z,100800.00
2023-01-01T11:07:21.812Z,100789.00
2023-01-01T11:10:02.590Z,100797.00
2023-01-01T11:15:35.851Z,100779.00
2023-01-01T11:18:05.746Z,100773.00
2023-01-01T11:20:34.579Z,100768.00
2023-01-01T11:23:19.910Z,100768.00
2023-01-01T11:26:06.736Z,100765.00
2023-01-01T11:28:36.918Z,100776.00
2023-01-01T11:31:08.096Z,100775.00
2023-01-01T11:33:37.949Z,100754.00
2023-01-01T11:36:07.389Z,100765.00
2023-01-01T11:38:35.713Z,100771.00
2023-01-01T11:41:06.196Z,100769.00
2023-01-01T11:43:40.830Z,100758.00
2023-01-01T11:46:11.794Z,100760.00
2023-01-01T11:48:44.080Z,100753.00
2023-01-01T11:51:28.525Z,100747.00
2023-01-01T11:54:10.450Z,100734.00
2023-01-01T11:56:40.575Z,100726.00
2023-01-01T11:59:15.705Z,100740.00
2023-01-01T12:01:48.036Z,100742.00
2023-01-01T12:04:20.986Z,100730.00
2023-01-01T12:06:53.361Z,100723.00
2023-01-01T12:09:25.637Z,100724.00
2023-01-01T12:11:58.419Z,100742.00
2023-01-01T12:14:33.015Z,100747.00
2023-01-01T12:17:05.366Z,100749.00
2023-01-01T12:19:39.511Z,100758.00
2023-01-01T12:22:17.371Z,100766.00
2023-01-01T12:24:46.525Z,100771.00
2023-01-01T12:27:20.277Z,100772.00
2023-01-01T12:30:06.683Z,100778.00
2023-01-01T12:32:47.016Z,100778.00
2023-01-01T12:35:26.325Z,100780.00
2023-01-01T12:38:03.484Z,100788.00
2023-01-01T12:40:45.011Z,100788.00
2023-01-01T12:43:16.128Z,100794.00
2023-01-01T12:46:27.599Z,100798.00
2023-01-01T12:49:08.507Z,100803.00
2023-01-01T12:51:46.234Z,100794.00
2023-01-01T12:54:50.397Z,100802.00
2023-01-01T12:57:25.690Z,100807.00
2023-01-01T12:59:55.073Z,100804.00
2023-01-01T13:02:25.947Z,100797.00
2023-01-01T13:04:57.794Z,100793.00
2023-01-01T13:07:31.990Z,100801.00
2023-01-01T13:10:07.247Z,100795.00
2023-01-01T13:12:38.398Z,100796.00
2023-01-01T13:15:44.193Z,100781.00
2023-01-01T13:18:22.721Z,100771.00
2023-01-01T13:20:57.871Z,100773.00
2023-01-01T13:23:48.524Z,100775.00
2023-01-01T13:26:50.169Z,100789.00
2023-01-01T13:29:35.040Z,100780.00
2023-01-01T13:32:08.331Z,100765.00
2023-01-01T13:34:42.843Z,100790.00
2023-01-01T13:37:54.888Z,100791.00
2023-01-01T13:40:53.275Z,100802.00
2023-01-01T13:43:29.597Z,100813.00
2023-01-01T13:46:15.519Z,100806.00
2023-01-01T13:48:59.350Z,100808.00
2023-01-01T13:52:06.884Z,100808.00
2023-01-01T13:55:17.400Z,100791.00
2023-01-01T13:58:14.249Z,100796.00
2023-01-01T14:00:53.704Z,100794.00
2023-01-01T14:03:22.987Z,100803.00
2023-01-01T14:05:55.702Z,100797.00
2023-01-01T14:08:32.778Z,100792.00
2023-01-01T14:11:02.158Z,100800.00
2023-01-01T14:13:32.296Z,100808.00
2023-01-01T14:16:02.318Z,100807.00
2023-01-01T14:18:35.109Z,100809.00
2023-01-01T14:21:03.587Z,100826.00
2023-01-01T14:23:35.381Z,100831.00
2023-01-01T14:26:06.410Z,100822.00
2023-01-01T14:28:35.919Z,100818.00
2023-01-01T14:31:10.688Z,100829.00
2023-01-01T14:33:39.610Z,100820.00
2023-01-01T14:36:17.315Z,100827.00
2023-01-01T14:38:48.080Z,100844.00
2023-01-01T14:41:20.008Z,100846.00
2023-01-01T14:43:49.919Z,100857.00
2023-01-01T14:46:20.587Z,100845.00
2023-01-01T14:48:51.584Z,100833.00
2023-01-01T14:51:22.131Z,100834.00
2023-01-01T14:53:53.335Z,100844.00
2023-01-01T14:56:27.048Z,100836.00
2023-01-01T14:58:55.968Z,100837.00
2023-01-01T15:01:26.830Z,100825.00
2023-01-01T15:03:59.158Z,100826.00
2023-01-01T15:06:27.280Z,100821.00
2023-01-01T15:08:57.871Z,100831.00
2023-01-01T15:11:29.012Z,100823.00
2023-01-01T15:14:00.875Z,100830.00
2023-01-01T15:16:34.730Z,100829.00
2023-01-01T15:19:18.438Z,100836.00
2023-01-01T15:21:46.149Z,100835.00
2023-01-01T15:24:16.900Z,100838.00
2023-01-01T15:26:49.926Z,100855.00
2023-01-01T15:29:24.890Z,100857.00
2023-01-01T15:31:57.293Z,100856.00
2023-01-01T15:34:27.648Z,100863.00
2023-01-01T15:36:57.395Z,100861.00
2023-01-01T15:39:33.751Z,100864.00
2023-01-01T15:42:01.434Z,100865.00
2023-01-01T15:44:31.983Z,100866.00
2023-01-01T15:47:14.832Z,100879.00
2023-01-01T15:49:42.531Z,100879.00
2023-01-01T15:52:18.283Z,100884.00
2023-01-01T15:54:48.257Z,100884.00
2023-01-01T15:57:19.962Z,100879.00
2023-01-01T15:59:49.698Z,100882.00
2023-01-01T16:02:22.968Z,100877.00
2023-01-01T16:04:51.479Z,100877.00
2023-01-01T16:07:23.385Z,100867.00
2023-01-01T16:09:57.695Z,100862.00
2023-01-01T16:12:26.240Z,100857.00
2023-01-01T16:14:53.899Z,100854.00
2023-01-01T16:17:22.189Z,100836.00
2023-01-01T16:19:51.551Z,100855.00
2023-01-01T16:22:20.367Z,100863.00
2023-01-01T16:24:48.221Z,100853.00
2023-01-01T16:27:17.971Z,100868.00
2023-01-01T16:29:52.765Z,100873.00
2023-01-01T16:32:22.316Z,100866.00
2023-01-01T16:34:49.996Z,100857.00
2023-01-01T16:37:22.358Z,100858.00
2023-01-01T16:39:50.155Z,100858.00
2023-01-01T16:42:19.589Z,100854.00
2023-01-01T16:44:47.214Z,100861.00
2023-01-01T16:47:14.866Z,100851.00
2023-01-01T16:49:42.501Z,100848.00
2023-01-01T16:52:10.460Z,100849.00
2023-01-01T16:54:40.064Z,100860.00
2023-01-01T16:57:07.699Z,100854.00
2023-01-01T16:59:36.724Z,100861.00
2023-01-01T17:02:04.516Z,100850.00
2023-01-01T17:04:32.249Z,100852.00
2023-01-01T17:06:59.900Z,100863.00
2023-01-01T17:09:27.523Z,100853.00
2023-01-01T17:11:55.196Z,100857.00
2023-01-01T17:14:22.835Z,100869.00
2023-01-01T17:16:55.449Z,100870.00
2023-01-01T17:19:23.526Z,100864.00
2023-01-01T17:21:51.200Z,100875.00
2023-01-01T17:24:20.610Z,100879.00
2023-01-01T17:26:51.738Z,100884.00
2023-01-01T17:29:19.469Z,100884.00
2023-01-01T17:31:47.328Z,100883.00
2023-01-01T17:34:16.388Z,100873.00
2023-01-01T17:36:45.496Z,100880.00
2023-01-01T17:39:15.006Z,100885.00
2023-01-01T17:41:43.659Z,100888.00
2023-01-01T17:44:12.120Z,100887.00
2023-01-01T17:46:42.492Z,100889.00
2023-01-01T17:49:10.920Z,100903.00
2023-01-01T17:51:40.080Z,100891.00
2023-01-01T17:54:11.605Z,100892.00
2023-01-01T17:56:39.269Z,100891.00
2023-01-01T17:59:07.169Z,100887.00
2023-01-01T18:01:35.768Z,100882.00
2023-01-01T18:04:05.558Z,100886.00
2023-01-01T18:06:38.863Z,100878.00
2023-01-01T18:09:12.867Z,100882.00
2023-01-01T18:11:40.905Z,100872.00
2023-01-01T18:14:08.595Z,100875.00
2023-01-01T18:16:38.881Z,100870.00
2023-01-01T18:19:06.845Z,100872.00
2023-01-01T18:21:35.430Z,100867.00
2023-01-01T18:24:03.453Z,100870.00
2023-01-01T18:26:32.546Z,100871.00
2023-01-01T18:29:02.497Z,100859.00
2023-01-01T18:31:31.634Z,100854.00
2023-01-01T18:34:00.364Z,100859.00
2023-01-01T18:36:29.949Z,100846.00
2023-01-01T18:38:59.513Z,100845.00
2023-01-01T18:41:44.691Z,100825.00
2023-01-01T18:44:19.505Z,100822.00
2023-01-01T18:46:53.591Z,100823.00
2023-01-01T18:49:23.733Z,100819.00
2023-01-01T18:51:55.680Z,100824.00
2023-01-01T18:54:23.598Z,100825.00
2023-01-01T18:57:01.113Z,100818.00
2023-01-01T18:59:28.824Z,100823.00
2023-01-01T19:01:57.160Z,100826.00
2023-01-01T19:04:24.934Z,100819.00
2023-01-01T19:06:52.605Z,100826.00
2023-01-01T19:09:23.170Z,100830.00
2023-01-01T19:11:54.026Z,100835.00
2023-01-01T19:14:24.152Z,100824.00
2023-01-01T19:16:56.480Z,100803.00
2023-01-01T19:19:25.800Z,100820.00
2023-01-01T19:22:13.332Z,100813.00
2023-01-01T19:24:44.511Z,100803.00
2023-01-01T19:27:16.646Z,100805.00
2023-01-01T19:29:46.149Z,100814.00
2023-01-01T19:32:13.948Z,100818.00
2023-01-01T19:34:41.632Z,100817.00
2023-01-01T19:37:10.205Z,100798.00
2023-01-01T19:39:39.467Z,100799.00
2023-01-01T19:42:07.717Z,100808.00
2023-01-01T19:44:37.320Z,100798.00
2023-01-01T19:47:06.624Z,100802.00
2023-01-01T19:49:34.260Z,100797.00
2023-01-01T19:52:03.486Z,100797.00
2023-01-01T19:54:31.180Z,100805.00
2023-01-01T19:56:58.884Z,100806.00
2023-01-01T19:59:32.924Z,100809.00
2023-01-01T20:02:43.384Z,100800.00
2023-01-01T20:04:50.810Z,100821.00
2023-01-01T20:07:18.722Z,100807.00
2023-01-01T20:09:46.392Z,100816.00
2023-01-01T20:12:14.008Z,100813.00
2023-01-01T20:14:41.698Z,100816.00
2023-01-01T20:17:10.732Z,100820.00
2023-01-01T20:19:39.051Z,100820.00
2023-01-01T20:22:13.935Z,100814.00
2023-01-01T20:24:42.483Z,100809.00
2023-01-01T20:27:10.555Z,100821.00
2023-01-01T20:29:37.455Z,100822.00
2023-01-01T20:32:06.115Z,100820.00
2023-01-01T20:34:35.128Z,100815.00
2023-01-01T20:37:20.771Z,100805.00
2023-01-01T20:39:48.431Z,100809.00
2023-01-01T20:42:16.104Z,100804.00
2023-01-01T20:44:44.104Z,100802.00
2023-01-01T20:47:12.011Z,100811.00
2023-01-01T20:49:41.605Z,100803.00
2023-01-01T20:52:09.822Z,100800.00
2023-01-01T20:54:37.465Z,100803.00
2023-01-01T20:57:05.230Z,100797.00
2023-01-01T20:59:37.687Z,100795.00
2023-01-01T21:02:07.488Z,100794.00
2023-01-01T21:04:38.489Z,100795.00
2023-01-01T21:07:09.685Z,100807.00
2023-01-01T21:09:37.797Z,100801.00
2023-01-01T21:12:06.244Z,100799.00
2023-01-01T21:14:34.188Z,100808.00
2023-01-01T21:17:04.472Z,100793.00
2023-01-01T21:19:32.195Z,100788.00
2023-01-01T21:21:59.882Z,100777.00
2023-01-01T21:24:33.288Z,100758.00
2023-01-01T21:27:06.564Z,100757.00
2023-01-01T21:29:34.560Z,100744.00
2023-01-01T21:32:15.084Z,100735.00
2023-01-01T21:34:45.430Z,100736.00
2023-01-01T21:37:39.133Z,100740.00
2023-01-01T21:40:33.777Z,100733.00
2023-01-01T21:43:19.469Z,100730.00
2023-01-01T21:45:48.215Z,100728.00
2023-01-01T21:48:18.471Z,100718.00
2023-01-01T21:50:48.030Z,100722.00
2023-01-01T21:53:18.179Z,100710.00
2023-01-01T21:55:55.358Z,100714.00
2023-01-01T21:58:42.924Z,100715.00
2023-01-01T22:01:26.713Z,100725.00
2023-01-01T22:04:00.651Z,100711.00
2023-01-01T22:06:36.494Z,100710.00
2023-01-01T22:09:15.021Z,100719.00
2023-01-01T22:11:44.892Z,100712.00
2023-01-01T22:14:15.571Z,100703.00
2023-01-01T22:16:44.110Z,100700.00
2023-01-01T22:19:13.975Z,100701.00
2023-01-01T22:21:41.798Z,100691.00
2023-01-01T22:24:28.898Z,100679.00
2023-01-01T22:27:01.983Z,100678.00
2023-01-01T22:29:32.126Z,100679.00
2023-01-01T22:32:03.726Z,100675.00
2023-01-01T22:34:32.225Z,100670.00
2023-01-01T22:37:01.013Z,100659.00
2023-01-01T22:39:34.872Z,100656.00
2023-01-01T22:42:04.565Z,100655.00
2023-01-01T22:44:33.584Z,100655.00
2023-01-01T22:47:03.389Z,100649.00
2023-01-01T22:49:35.459Z,100651.00
2023-01-01T22:52:04.107Z,100642.00
2023-01-01T22:54:31.846Z,100647.00
2023-01-01T22:56:59.553Z,100637.00
2023-01-01T22:59:28.698Z,100637.00
2023-01-01T23:01:56.380Z,100634.00
2023-01-01T23:04:24.082Z,100650.00
2023-01-01T23:06:52.504Z,100634.00
2023-01-01T23:09:20.655Z,100628.00
2023-01-01T23:11:48.499Z,100620.00
2023-01-01T23:14:38.586Z,100627.00
2023-01-01T23:17:08.417Z,100602.00
2023-01-01T23:19:36.085Z,100600.00
2023-01-01T23:22:04.864Z,100596.00
2023-01-01T23:24:33.131Z,100594.00
2023-01-01T23:27:01.594Z,100590.00
2023-01-01T23:29:31.698Z,100595.00
2023-01-01T23:32:00.061Z,100589.00
2023-01-01T23:34:29.494Z,100591.00
2023-01-01T23:36:57.537Z,100576.00
2023-01-01T23:39:25.183Z,100574.00
2023-01-01T23:41:52.862Z,100570.00
2023-01-01T23:44:20.512Z,100573.00
2023-01-01T23:46:48.511Z,100568.00
2023-01-01T23:49:16.516Z,100580.00
2023-01-01T23:51:45.661Z,100575.00
2023-01-01T23:54:13.295Z,100568.00
2023-01-01T23:56:40.944Z,100567.00
2023-01-01T23:59:08.647Z,100568.00
